createdAt,value
2018-05-04T00:00:08.009Z,17.48
2018-05-04T00:00:48.541Z,17.41
2018-05-04T00:01:29.061Z,17.4
2018-05-04T00:02:09.581Z,17.4
2018-05-04T00:02:50.103Z,17.34
2018-05-04T00:03:30.635Z,17.31
2018-05-04T00:04:11.163Z,17.38
2018-05-04T00:04:51.690Z,17.31
2018-05-04T00:05:32.224Z,17.31
2018-05-04T00:06:12.751Z,17.31
2018-05-04T00:06:53.271Z,17.3
2018-05-04T00:07:34.349Z,17.37
2018-05-04T00:08:14.849Z,17.33
2018-05-04T00:08:54.837Z,17.37
2018-05-04T00:09:36.308Z,17.31
2018-05-04T00:10:16.838Z,17.3
2018-05-04T00:10:57.366Z,17.31
2018-05-04T00:11:37.891Z,17.26
2018-05-04T00:12:18.407Z,17.36
2018-05-04T00:12:58.940Z,17.3
2018-05-04T00:13:39.463Z,17.3
2018-05-04T00:14:19.991Z,17.31
2018-05-04T00:15:00.514Z,17.3
2018-05-04T00:15:41.043Z,17.31
2018-05-04T00:16:21.557Z,17.31
2018-05-04T00:17:02.089Z,17.31
2018-05-04T00:17:42.615Z,17.28
2018-05-04T00:18:23.142Z,17.38
2018-05-04T00:19:03.695Z,17.3
2018-05-04T00:19:44.192Z,17.4
2018-05-04T00:20:24.717Z,17.37
2018-05-04T00:21:05.227Z,17.38
2018-05-04T00:21:45.745Z,17.38
2018-05-04T00:22:27.147Z,17.37
2018-05-04T00:23:07.656Z,17.38
2018-05-04T00:23:48.163Z,17.37
2018-05-04T00:24:28.627Z,17.36
2018-05-04T00:25:09.131Z,17.36
2018-05-04T00:25:49.610Z,17.36
2018-05-04T00:26:30.110Z,17.4
2018-05-04T00:27:10.644Z,17.38
2018-05-04T00:27:51.162Z,17.44
2018-05-04T00:28:31.690Z,17.43
2018-05-04T00:29:12.220Z,17.4
2018-05-04T00:29:52.748Z,17.44
2018-05-04T00:30:33.279Z,17.43
2018-05-04T00:31:13.813Z,17.43
2018-05-04T00:31:54.351Z,17.44
2018-05-04T00:32:34.880Z,17.4
2018-05-04T00:33:15.412Z,17.41
2018-05-04T00:33:55.937Z,17.38
2018-05-04T00:34:36.457Z,17.41
2018-05-04T00:35:16.991Z,17.34
2018-05-04T00:35:57.529Z,17.36
2018-05-04T00:36:38.860Z,17.41
2018-05-04T00:37:19.407Z,17.34
2018-05-04T00:37:59.939Z,17.36
2018-05-04T00:38:40.462Z,17.28
2018-05-04T00:39:20.991Z,17.37
2018-05-04T00:40:01.514Z,17.36
2018-05-04T00:40:42.046Z,17.33
2018-05-04T00:41:22.568Z,17.36
2018-05-04T00:42:03.856Z,17.34
2018-05-04T00:42:43.627Z,17.3
2018-05-04T00:43:24.154Z,17.33
2018-05-04T00:44:04.686Z,17.33
2018-05-04T00:44:45.208Z,17.33
2018-05-04T00:45:25.735Z,17.34
2018-05-04T00:46:06.254Z,17.33
2018-05-04T00:46:46.782Z,17.34
2018-05-04T00:47:27.310Z,17.26
2018-05-04T00:48:07.825Z,17.3
2018-05-04T00:48:48.356Z,17.28
2018-05-04T00:49:28.882Z,17.34
2018-05-04T00:50:09.413Z,17.28
2018-05-04T00:50:49.944Z,17.31
2018-05-04T00:51:30.463Z,17.26
2018-05-04T00:52:10.988Z,17.33
2018-05-04T00:52:51.514Z,17.34
2018-05-04T00:53:32.037Z,17.31
2018-05-04T00:54:12.539Z,17.28
2018-05-04T00:54:53.065Z,17.19
2018-05-04T00:55:33.590Z,17.21
2018-05-04T00:56:14.100Z,17.28
2018-05-04T00:56:55.366Z,17.25
2018-05-04T00:57:35.145Z,17.22
2018-05-04T00:58:15.649Z,17.28
2018-05-04T00:58:56.948Z,17.23
2018-05-04T00:59:38.364Z,17.12
2018-05-04T01:00:17.986Z,17.14
2018-05-04T01:00:59.027Z,17.16
2018-05-04T01:01:39.553Z,17.14
2018-05-04T01:02:20.074Z,17.06
2018-05-04T01:03:00.573Z,17.08
2018-05-04T01:03:41.103Z,17.04
2018-05-04T01:04:21.613Z,17
2018-05-04T01:05:02.122Z,17
2018-05-04T01:05:42.632Z,17.11
2018-05-04T01:06:23.158Z,17.11
2018-05-04T01:07:04.360Z,17.07
2018-05-04T01:07:44.193Z,17.07
2018-05-04T01:08:24.723Z,17.01
2018-05-04T01:09:05.246Z,17.04
2018-05-04T01:09:45.773Z,17.01
2018-05-04T01:10:26.297Z,17.04
2018-05-04T01:11:06.821Z,17.01
2018-05-04T01:11:47.861Z,17.04
2018-05-04T01:12:27.868Z,17.01
2018-05-04T01:13:08.387Z,17
2018-05-04T01:13:48.914Z,16.98
2018-05-04T01:14:29.445Z,16.97
2018-05-04T01:15:09.969Z,16.93
2018-05-04T01:15:50.498Z,16.98
2018-05-04T01:16:31.022Z,16.97
2018-05-04T01:17:11.551Z,16.91
2018-05-04T01:17:52.076Z,16.93
2018-05-04T01:18:32.601Z,16.91
2018-05-04T01:19:13.125Z,16.83
2018-05-04T01:19:53.647Z,16.82
2018-05-04T01:20:34.162Z,16.88
2018-05-04T01:21:14.677Z,16.86
2018-05-04T01:21:55.863Z,16.86
2018-05-04T01:22:35.697Z,16.81
2018-05-04T01:23:16.232Z,16.86
2018-05-04T01:23:57.368Z,16.81
2018-05-04T01:24:37.276Z,16.89
2018-05-04T01:25:17.775Z,16.85
2018-05-04T01:25:59.864Z,16.88
2018-05-04T01:26:39.431Z,16.93
2018-05-04T01:27:19.934Z,16.88
2018-05-04T01:28:00.458Z,16.86
2018-05-04T01:28:40.987Z,16.81
2018-05-04T01:29:21.522Z,16.83
2018-05-04T01:30:02.048Z,16.81
2018-05-04T01:30:42.576Z,16.78
2018-05-04T01:31:24.372Z,16.81
2018-05-04T01:32:03.624Z,16.76
2018-05-04T01:32:44.149Z,16.75
2018-05-04T01:33:24.680Z,16.7
2018-05-04T01:34:05.193Z,16.71
2018-05-04T01:34:46.601Z,16.71
2018-05-04T01:35:27.138Z,16.66
2018-05-04T01:36:07.670Z,16.71
2018-05-04T01:36:48.194Z,16.68
2018-05-04T01:37:28.720Z,16.57
2018-05-04T01:38:09.253Z,16.58
2018-05-04T01:38:49.778Z,16.61
2018-05-04T01:39:30.302Z,16.61
2018-05-04T01:40:10.821Z,16.64
2018-05-04T01:40:51.351Z,16.63
2018-05-04T01:41:31.878Z,16.6
2018-05-04T01:42:12.351Z,16.57
2018-05-04T01:42:52.887Z,16.57
2018-05-04T01:43:33.411Z,16.52
2018-05-04T01:44:13.935Z,16.5
2018-05-04T01:44:54.455Z,16.52
2018-05-04T01:45:34.983Z,16.56
2018-05-04T01:46:15.521Z,16.5
2018-05-04T01:46:56.039Z,16.48
2018-05-04T01:47:36.573Z,16.46
2018-05-04T01:48:17.096Z,16.46
2018-05-04T01:48:57.613Z,16.43
2018-05-04T01:49:38.134Z,16.35
2018-05-04T01:50:18.663Z,16.41
2018-05-04T01:50:59.164Z,16.39
2018-05-04T01:51:39.691Z,16.31
2018-05-04T01:52:20.220Z,16.28
2018-05-04T01:53:02.370Z,16.28
2018-05-04T01:53:41.972Z,16.34
2018-05-04T01:54:22.497Z,16.3
2018-05-04T01:55:03.029Z,16.27
2018-05-04T01:55:43.559Z,16.24
2018-05-04T01:56:24.079Z,16.25
2018-05-04T01:57:04.608Z,16.23
2018-05-04T01:57:45.122Z,16.14
2018-05-04T01:58:25.646Z,16.15
2018-05-04T01:59:06.186Z,16.11
2018-05-04T01:59:46.695Z,16.14
2018-05-04T02:00:27.184Z,16.04
2018-05-04T02:01:07.699Z,16.05
2018-05-04T02:01:48.239Z,16.07
2018-05-04T02:02:28.768Z,16.05
2018-05-04T02:03:09.280Z,16.15
2018-05-04T02:03:49.817Z,16.04
2018-05-04T02:04:30.335Z,16.05
2018-05-04T02:05:10.848Z,16.05
2018-05-04T02:05:51.350Z,15.9
2018-05-04T02:06:31.874Z,15.97
2018-05-04T02:07:12.403Z,15.9
2018-05-04T02:07:52.977Z,15.83
2018-05-04T02:08:33.457Z,15.89
2018-05-04T02:09:13.978Z,15.82
2018-05-04T02:09:55.008Z,15.83
2018-05-04T02:10:35.533Z,15.82
2018-05-04T02:11:16.068Z,15.86
2018-05-04T02:11:56.594Z,15.76
2018-05-04T02:12:37.120Z,15.71
2018-05-04T02:13:17.647Z,15.68
2018-05-04T02:13:58.178Z,15.74
2018-05-04T02:14:38.703Z,15.71
2018-05-04T02:15:19.228Z,15.67
2018-05-04T02:15:59.760Z,15.74
2018-05-04T02:16:40.293Z,15.69
2018-05-04T02:17:20.812Z,15.64
2018-05-04T02:18:01.342Z,15.67
2018-05-04T02:18:41.857Z,15.65
2018-05-04T02:19:22.382Z,15.71
2018-05-04T02:20:02.904Z,15.67
2018-05-04T02:20:43.433Z,15.72
2018-05-04T02:21:23.961Z,15.67
2018-05-04T02:22:04.504Z,15.67
2018-05-04T02:22:45.026Z,15.59
2018-05-04T02:23:25.540Z,15.64
2018-05-04T02:24:06.054Z,15.56
2018-05-04T02:24:46.579Z,15.68
2018-05-04T02:25:27.091Z,15.56
2018-05-04T02:26:07.580Z,15.62
2018-05-04T02:26:48.123Z,15.64
2018-05-04T02:27:28.641Z,15.6
2018-05-04T02:28:09.179Z,15.62
2018-05-04T02:28:49.681Z,15.54
2018-05-04T02:29:30.213Z,15.51
2018-05-04T02:30:10.739Z,15.57
2018-05-04T02:30:51.270Z,15.54
2018-05-04T02:31:31.793Z,15.51
2018-05-04T02:32:12.323Z,15.53
2018-05-04T02:32:52.851Z,15.46
2018-05-04T02:33:33.384Z,15.43
2018-05-04T02:34:13.902Z,15.53
2018-05-04T02:34:54.430Z,15.43
2018-05-04T02:35:34.953Z,15.51
2018-05-04T02:36:15.483Z,15.51
2018-05-04T02:36:56.013Z,15.56
2018-05-04T02:37:36.544Z,15.5
2018-05-04T02:38:17.069Z,15.44
2018-05-04T02:38:58.557Z,15.5
2018-05-04T02:39:39.063Z,15.54
2018-05-04T02:40:19.560Z,15.57
2018-05-04T02:41:00.076Z,15.54
2018-05-04T02:41:40.632Z,15.56
2018-05-04T02:42:21.096Z,15.44
2018-05-04T02:43:01.600Z,15.56
2018-05-04T02:43:42.111Z,15.5
2018-05-04T02:44:22.640Z,15.59
2018-05-04T02:45:03.152Z,15.51
2018-05-04T02:45:43.689Z,15.68
2018-05-04T02:46:24.211Z,15.57
2018-05-04T02:47:04.743Z,15.57
2018-05-04T02:47:45.274Z,15.69
2018-05-04T02:48:25.800Z,15.65
2018-05-04T02:49:06.330Z,15.69
2018-05-04T02:49:46.870Z,15.68
2018-05-04T02:50:27.379Z,15.72
2018-05-04T02:51:07.911Z,15.65
2018-05-04T02:51:48.432Z,15.8
2018-05-04T02:52:28.951Z,15.64
2018-05-04T02:53:09.459Z,15.68
2018-05-04T02:53:49.984Z,15.75
2018-05-04T02:54:30.501Z,15.69
2018-05-04T02:55:11.023Z,15.76
2018-05-04T02:55:51.546Z,15.82
2018-05-04T02:56:32.084Z,15.82
2018-05-04T02:57:12.612Z,15.76
2018-05-04T02:57:53.141Z,15.75
2018-05-04T02:58:33.665Z,15.82
2018-05-04T02:59:14.445Z,15.8
2018-05-04T02:59:54.963Z,15.83
2018-05-04T03:00:35.484Z,15.93
2018-05-04T03:01:16.022Z,15.89
2018-05-04T03:01:56.542Z,15.87
2018-05-04T03:02:37.069Z,15.9
2018-05-04T03:03:17.601Z,15.89
2018-05-04T03:03:58.129Z,15.92
2018-05-04T03:04:38.656Z,15.9
2018-05-04T03:05:19.186Z,15.93
2018-05-04T03:05:59.720Z,15.93
2018-05-04T03:06:41.058Z,15.9
2018-05-04T03:07:21.583Z,15.96
2018-05-04T03:08:02.105Z,15.86
2018-05-04T03:08:42.623Z,16
2018-05-04T03:09:23.160Z,16.07
2018-05-04T03:10:03.681Z,15.96
2018-05-04T03:10:44.242Z,16.07
2018-05-04T03:11:24.750Z,16.02
2018-05-04T03:12:05.253Z,16.05
2018-05-04T03:12:45.761Z,16
2018-05-04T03:13:26.252Z,16.11
2018-05-04T03:14:06.719Z,16.07
2018-05-04T03:14:47.243Z,16.07
2018-05-04T03:15:27.714Z,16.05
2018-05-04T03:16:08.234Z,16.07
2018-05-04T03:16:48.701Z,16.08
2018-05-04T03:17:29.203Z,16.05
2018-05-04T03:18:09.710Z,16.17
2018-05-04T03:18:50.261Z,16.12
2018-05-04T03:19:30.794Z,16.14
2018-05-04T03:20:11.330Z,16.15
2018-05-04T03:20:51.823Z,16.15
2018-05-04T03:21:32.442Z,16.14
2018-05-04T03:22:12.930Z,16.14
2018-05-04T03:22:53.438Z,16.14
2018-05-04T03:23:35.208Z,16.07
2018-05-04T03:24:15.867Z,16.11
2018-05-04T03:24:56.700Z,16.14
2018-05-04T03:25:37.211Z,16.15
2018-05-04T03:26:17.720Z,16.12
2018-05-04T03:26:58.253Z,16.15
2018-05-04T03:27:39.072Z,16.14
2018-05-04T03:28:19.633Z,16.14
2018-05-04T03:29:00.343Z,16.09
2018-05-04T03:29:40.939Z,16.12
2018-05-04T03:30:21.432Z,16.02
2018-05-04T03:31:01.974Z,16.14
2018-05-04T03:31:42.473Z,16.21
2018-05-04T03:32:22.973Z,16.15
2018-05-04T03:33:03.499Z,16.11
2018-05-04T03:33:44.451Z,16.14
2018-05-04T03:34:24.975Z,16.15
2018-05-04T03:35:06.540Z,16.17
2018-05-04T03:35:47.312Z,16.08
2018-05-04T03:36:27.921Z,16.15
2018-05-04T03:37:08.414Z,16.15
2018-05-04T03:37:48.891Z,16.14
2018-05-04T03:38:29.887Z,16.07
2018-05-04T03:39:09.914Z,16.17
2018-05-04T03:39:50.411Z,16.08
2018-05-04T03:40:33.506Z,16.05
2018-05-04T03:41:13.185Z,16.21
2018-05-04T03:41:53.900Z,16.14
2018-05-04T03:42:34.307Z,16.12
2018-05-04T03:43:14.938Z,16.11
2018-05-04T03:43:55.692Z,16.11
2018-05-04T03:44:36.349Z,16.15
2018-05-04T03:45:17.621Z,16.11
2018-05-04T03:45:58.505Z,16.12
2018-05-04T03:46:38.966Z,16.07
2018-05-04T03:47:19.448Z,16.09
2018-05-04T03:48:00.556Z,16.01
2018-05-04T03:48:41.140Z,16.02
2018-05-04T03:49:21.623Z,16.2
2018-05-04T03:50:02.140Z,16.02
2018-05-04T03:50:42.644Z,16.05
2018-05-04T03:51:23.174Z,15.97
2018-05-04T03:52:03.679Z,16.08
2018-05-04T03:52:44.183Z,16.09
2018-05-04T03:53:24.751Z,16.02
2018-05-04T03:54:05.294Z,16.11
2018-05-04T03:54:45.912Z,16.01
2018-05-04T03:55:26.448Z,16.05
2018-05-04T03:56:06.962Z,16.08
2018-05-04T03:56:47.465Z,16.09
2018-05-04T03:57:27.972Z,16.02
2018-05-04T03:58:08.498Z,16.09
2018-05-04T03:58:48.986Z,16.11
2018-05-04T03:59:30.378Z,16.11
2018-05-04T04:00:10.870Z,16.11
2018-05-04T04:00:51.398Z,16.11
2018-05-04T04:01:31.972Z,16.02
2018-05-04T04:02:12.476Z,16.09
2018-05-04T04:02:52.901Z,16.07
2018-05-04T04:03:33.415Z,15.97
2018-05-04T04:04:13.925Z,16.04
2018-05-04T04:04:54.419Z,15.97
2018-05-04T04:05:34.918Z,16.04
2018-05-04T04:06:15.424Z,16.07
2018-05-04T04:06:55.939Z,15.92
2018-05-04T04:07:36.464Z,16.01
2018-05-04T04:08:16.972Z,15.96
2018-05-04T04:08:57.468Z,16.07
2018-05-04T04:09:37.955Z,16.04
2018-05-04T04:10:18.446Z,16.05
2018-05-04T04:10:59.855Z,16.02
2018-05-04T04:11:40.375Z,16.02
2018-05-04T04:12:20.899Z,16.02
2018-05-04T04:13:01.366Z,16.04
2018-05-04T04:13:41.919Z,16.12
2018-05-04T04:14:22.525Z,16.12
2018-05-04T04:15:02.992Z,16.12
2018-05-04T04:15:43.449Z,16.07
2018-05-04T04:16:23.942Z,16.12
2018-05-04T04:17:04.446Z,16.12
2018-05-04T04:17:44.947Z,16.12
2018-05-04T04:18:25.448Z,16.11
2018-05-04T04:19:05.949Z,16.05
2018-05-04T04:19:46.470Z,16.17
2018-05-04T04:20:26.954Z,16.09
2018-05-04T04:21:07.483Z,16.23
2018-05-04T04:21:48.012Z,16.15
2018-05-04T04:22:28.540Z,16.15
2018-05-04T04:23:09.066Z,16.2
2018-05-04T04:23:49.596Z,16.12
2018-05-04T04:24:30.119Z,16.21
2018-05-04T04:25:10.646Z,16.23
2018-05-04T04:25:51.171Z,16.12
2018-05-04T04:26:31.691Z,16.28
2018-05-04T04:27:12.201Z,16.27
2018-05-04T04:27:52.719Z,16.27
2018-05-04T04:28:33.247Z,16.2
2018-05-04T04:29:13.786Z,16.24
2018-05-04T04:29:54.315Z,16.31
2018-05-04T04:30:34.848Z,16.27
2018-05-04T04:31:15.373Z,16.3
2018-05-04T04:31:55.905Z,16.27
2018-05-04T04:32:36.418Z,16.3
2018-05-04T04:33:16.938Z,16.48
2018-05-04T04:33:57.455Z,16.38
2018-05-04T04:34:38.897Z,16.42
2018-05-04T04:35:19.442Z,16.43
2018-05-04T04:35:59.951Z,16.46
2018-05-04T04:36:40.477Z,16.43
2018-05-04T04:37:20.998Z,16.5
2018-05-04T04:38:02.899Z,16.46
2018-05-04T04:38:42.872Z,16.46
2018-05-04T04:39:23.404Z,16.5
2018-05-04T04:40:03.938Z,16.45
2018-05-04T04:40:44.446Z,16.49
2018-05-04T04:41:24.976Z,16.46
2018-05-04T04:42:05.501Z,16.56
2018-05-04T04:42:46.028Z,16.56
2018-05-04T04:43:26.540Z,16.56
2018-05-04T04:44:07.064Z,16.49
2018-05-04T04:44:47.582Z,16.49
2018-05-04T04:45:28.143Z,16.58
2018-05-04T04:46:08.632Z,16.61
2018-05-04T04:46:49.155Z,16.57
2018-05-04T04:47:29.686Z,16.67
2018-05-04T04:48:10.247Z,16.7
2018-05-04T04:48:50.787Z,16.83
2018-05-04T04:49:31.311Z,16.83
2018-05-04T04:50:11.824Z,16.93
2018-05-04T04:50:52.351Z,17.11
2018-05-04T04:51:32.948Z,17.03
2018-05-04T04:52:13.383Z,17.07
2018-05-04T04:52:53.913Z,17.06
2018-05-04T04:53:34.483Z,17.04
2018-05-04T04:54:14.980Z,17.16
2018-05-04T04:54:55.497Z,17.18
2018-05-04T04:55:36.028Z,17.15
2018-05-04T04:56:16.558Z,17.22
2018-05-04T04:56:57.089Z,17.15
2018-05-04T04:57:37.616Z,17.16
2018-05-04T04:58:18.154Z,17.15
2018-05-04T04:58:58.671Z,17.15
2018-05-04T04:59:39.452Z,17.21
2018-05-04T05:00:19.977Z,17.23
2018-05-04T05:01:00.511Z,17.18
2018-05-04T05:01:41.036Z,17.31
2018-05-04T05:02:24.264Z,17.38
2018-05-04T05:03:04.780Z,17.43
2018-05-04T05:03:45.312Z,17.49
2018-05-04T05:04:25.844Z,17.56
2018-05-04T05:05:06.376Z,17.68
2018-05-04T05:05:46.904Z,17.71
2018-05-04T05:06:27.452Z,17.78
2018-05-04T05:07:08.058Z,17.87
2018-05-04T05:07:48.598Z,17.81
2018-05-04T05:08:29.135Z,17.96
2018-05-04T05:09:09.726Z,17.99
2018-05-04T05:09:50.263Z,18.05
2018-05-04T05:10:30.791Z,18.18
2018-05-04T05:11:11.320Z,18.17
2018-05-04T05:11:51.847Z,18.21
2018-05-04T05:12:33.028Z,18.3
2018-05-04T05:13:13.562Z,18.33
2018-05-04T05:13:54.076Z,18.33
2018-05-04T05:14:34.600Z,18.32
2018-05-04T05:15:15.154Z,18.32
2018-05-04T05:15:55.682Z,18.44
2018-05-04T05:16:36.214Z,18.47
2018-05-04T05:17:16.732Z,18.44
2018-05-04T05:17:57.268Z,18.54
2018-05-04T05:18:37.804Z,18.54
2018-05-04T05:19:18.332Z,18.65
2018-05-04T05:19:59.065Z,18.65
2018-05-04T05:20:39.608Z,18.75
2018-05-04T05:21:20.125Z,18.8
2018-05-04T05:22:00.661Z,18.88
2018-05-04T05:22:41.172Z,18.99
2018-05-04T05:23:21.724Z,19
2018-05-04T05:24:02.228Z,19.06
2018-05-04T05:24:42.747Z,18.99
2018-05-04T05:25:23.200Z,19.02
2018-05-04T05:26:03.741Z,19.23
2018-05-04T05:26:44.268Z,19.32
2018-05-04T05:27:25.027Z,19.43
2018-05-04T05:28:05.289Z,19.55
2018-05-04T05:28:46.889Z,19.55
2018-05-04T05:29:27.423Z,19.62
2018-05-04T05:30:07.957Z,19.71
2018-05-04T05:30:48.459Z,19.8
2018-05-04T05:31:28.989Z,19.81
2018-05-04T05:32:09.453Z,19.92
2018-05-04T05:32:49.923Z,19.95
2018-05-04T05:33:30.571Z,19.99
2018-05-04T05:34:11.061Z,20.03
2018-05-04T05:34:51.908Z,20.14
2018-05-04T05:35:32.099Z,20.2
2018-05-04T05:36:12.461Z,20.2
2018-05-04T05:36:52.941Z,20.21
2018-05-04T05:37:33.437Z,20.29
2018-05-04T05:38:13.897Z,20.24
2018-05-04T05:38:54.489Z,20.38
2018-05-04T05:39:34.890Z,20.39
2018-05-04T05:40:15.392Z,20.41
2018-05-04T05:40:55.872Z,20.43
2018-05-04T05:41:36.398Z,20.55
2018-05-04T05:42:16.861Z,20.73
2018-05-04T05:42:57.397Z,20.73
2018-05-04T05:43:37.907Z,20.77
2018-05-04T05:44:18.342Z,20.87
2018-05-04T05:44:58.867Z,20.7
2018-05-04T05:45:40.243Z,20.8
2018-05-04T05:46:20.761Z,20.72
2018-05-04T05:47:01.984Z,20.67
2018-05-04T05:47:42.580Z,20.57
2018-05-04T05:48:22.994Z,20.61
2018-05-04T05:49:03.609Z,20.61
2018-05-04T05:49:44.149Z,20.58
2018-05-04T05:50:24.672Z,20.61
2018-05-04T05:51:05.142Z,20.55
2018-05-04T05:51:45.705Z,20.64
2018-05-04T05:52:26.110Z,20.62
2018-05-04T05:53:06.694Z,20.64
2018-05-04T05:53:47.110Z,20.64
2018-05-04T05:54:27.619Z,20.64
2018-05-04T05:55:08.164Z,20.59
2018-05-04T05:55:48.688Z,20.57
2018-05-04T05:56:29.172Z,20.55
2018-05-04T05:57:09.633Z,20.57
2018-05-04T05:57:50.252Z,20.66
2018-05-04T05:58:31.117Z,20.76
2018-05-04T05:59:12.430Z,20.77
2018-05-04T05:59:52.922Z,20.97
2018-05-04T06:00:34.112Z,21.03
2018-05-04T06:01:15.042Z,21.29
2018-05-04T06:01:55.552Z,21.62
2018-05-04T06:02:36.064Z,21.92
2018-05-04T06:03:16.524Z,22.21
2018-05-04T06:03:56.963Z,22.42
2018-05-04T06:04:37.548Z,22.72
2018-05-04T06:05:18.009Z,22.88
2018-05-04T06:05:58.542Z,22.97
2018-05-04T06:06:38.992Z,22.98
2018-05-04T06:07:20.419Z,23.1
2018-05-04T06:08:01.010Z,23.31
2018-05-04T06:08:41.561Z,23.35
2018-05-04T06:09:22.036Z,23.32
2018-05-04T06:10:02.525Z,23.23
2018-05-04T06:10:43.117Z,23.17
2018-05-04T06:11:23.654Z,23.07
2018-05-04T06:12:04.099Z,22.97
2018-05-04T06:12:44.568Z,22.98
2018-05-04T06:13:25.088Z,22.88
2018-05-04T06:14:05.582Z,22.79
2018-05-04T06:14:46.113Z,22.86
2018-05-04T06:15:26.601Z,22.86
2018-05-04T06:16:07.068Z,22.83
2018-05-04T06:16:47.517Z,22.8
2018-05-04T06:17:28.153Z,22.72
2018-05-04T06:18:08.557Z,22.65
2018-05-04T06:18:49.066Z,22.49
2018-05-04T06:19:29.534Z,22.43
2018-05-04T06:20:10.921Z,22.47
2018-05-04T06:20:50.626Z,22.49
2018-05-04T06:21:31.098Z,22.51
2018-05-04T06:22:11.604Z,22.62
2018-05-04T06:22:52.130Z,22.67
2018-05-04T06:23:32.617Z,22.68
2018-05-04T06:24:13.108Z,22.52
2018-05-04T06:24:53.666Z,22.51
2018-05-04T06:25:34.140Z,22.47
2018-05-04T06:26:14.712Z,22.51
2018-05-04T06:26:55.922Z,22.54
2018-05-04T06:27:35.708Z,22.52
2018-05-04T06:28:16.493Z,22.42
2018-05-04T06:28:57.845Z,22.46
2018-05-04T06:29:39.196Z,22.43
2018-05-04T06:30:19.716Z,22.42
2018-05-04T06:31:00.200Z,22.39
2018-05-04T06:31:40.756Z,22.46
2018-05-04T06:32:21.247Z,22.42
2018-05-04T06:33:01.833Z,22.4
2018-05-04T06:33:42.266Z,22.39
2018-05-04T06:34:22.797Z,22.4
2018-05-04T06:35:03.202Z,22.37
2018-05-04T06:35:43.783Z,22.42
2018-05-04T06:36:24.233Z,22.42
2018-05-04T06:37:04.694Z,22.49
2018-05-04T06:37:45.169Z,22.46
2018-05-04T06:38:25.664Z,22.67
2018-05-04T06:39:06.143Z,22.7
2018-05-04T06:39:46.702Z,22.86
2018-05-04T06:40:27.148Z,22.85
2018-05-04T06:41:07.645Z,22.86
2018-05-04T06:41:48.207Z,22.9
2018-05-04T06:42:28.695Z,22.9
2018-05-04T06:43:09.203Z,22.9
2018-05-04T06:43:49.664Z,22.91
2018-05-04T06:44:30.181Z,22.83
2018-05-04T06:45:10.658Z,22.76
2018-05-04T06:45:51.249Z,22.67
2018-05-04T06:46:31.665Z,22.67
2018-05-04T06:47:12.164Z,22.65
2018-05-04T06:47:52.651Z,22.65
2018-05-04T06:48:33.153Z,22.65
2018-05-04T06:49:13.696Z,22.47
2018-05-04T06:49:54.134Z,22.36
2018-05-04T06:50:34.627Z,22.42
2018-05-04T06:51:15.112Z,22.33
2018-05-04T06:51:55.618Z,22.35
2018-05-04T06:52:36.141Z,22.33
2018-05-04T06:53:16.676Z,22.33
2018-05-04T06:53:57.123Z,22.3
2018-05-04T06:54:37.653Z,22.25
2018-05-04T06:55:18.114Z,22.27
2018-05-04T06:55:59.584Z,22.21
2018-05-04T06:56:40.042Z,22.14
2018-05-04T06:57:20.573Z,22.18
2018-05-04T06:58:01.052Z,22.17
2018-05-04T06:58:41.535Z,22.1
2018-05-04T06:59:22.106Z,22.12
2018-05-04T07:00:02.503Z,22.15
2018-05-04T07:00:43.003Z,22.17
2018-05-04T07:01:24.373Z,22.3
2018-05-04T07:02:04.878Z,22.28
2018-05-04T07:02:45.371Z,22.31
2018-05-04T07:03:25.869Z,22.25
2018-05-04T07:04:06.370Z,22.36
2018-05-04T07:04:46.842Z,22.28
2018-05-04T07:05:27.333Z,22.24
2018-05-04T07:06:07.832Z,22.1
2018-05-04T07:06:48.325Z,22.03
2018-05-04T07:07:28.805Z,21.99
2018-05-04T07:08:09.289Z,21.92
2018-05-04T07:08:49.810Z,21.8
2018-05-04T07:09:30.543Z,21.82
2018-05-04T07:10:11.044Z,21.65
2018-05-04T07:10:53.437Z,21.71
2018-05-04T07:11:32.747Z,21.64
2018-05-04T07:12:13.234Z,21.62
2018-05-04T07:12:53.713Z,21.54
2018-05-04T07:13:34.940Z,21.46
2018-05-04T07:14:15.439Z,21.38
2018-05-04T07:14:55.303Z,21.38
2018-05-04T07:15:35.779Z,21.35
2018-05-04T07:16:16.314Z,21.42
2018-05-04T07:16:56.799Z,21.31
2018-05-04T07:17:37.231Z,21.25
2018-05-04T07:18:17.716Z,21.25
2018-05-04T07:18:58.812Z,21.17
2018-05-04T07:19:39.483Z,21.22
2018-05-04T07:20:20.043Z,21.13
2018-05-04T07:21:00.664Z,21.1
2018-05-04T07:21:41.220Z,21.04
2018-05-04T07:22:21.775Z,21.06
2018-05-04T07:23:02.290Z,21.06
2018-05-04T07:23:42.803Z,21.04
2018-05-04T07:24:23.360Z,20.91
2018-05-04T07:25:03.873Z,20.97
2018-05-04T07:25:44.953Z,20.91
2018-05-04T07:26:24.883Z,20.94
2018-05-04T07:27:05.375Z,21.01
2018-05-04T07:27:45.895Z,21.03
2018-05-04T07:28:26.442Z,21.09
2018-05-04T07:29:06.902Z,21.19
2018-05-04T07:29:47.460Z,21.17
2018-05-04T07:30:28.027Z,21.25
2018-05-04T07:31:08.466Z,21.32
2018-05-04T07:31:49.008Z,21.32
2018-05-04T07:32:29.527Z,21.53
2018-05-04T07:33:10.008Z,21.56
2018-05-04T07:33:50.537Z,21.67
2018-05-04T07:34:31.005Z,21.92
2018-05-04T07:35:11.534Z,22.02
2018-05-04T07:35:52.100Z,22.18
2018-05-04T07:36:32.566Z,22.31
2018-05-04T07:37:13.704Z,22.42
2018-05-04T07:37:54.945Z,22.46
2018-05-04T07:38:34.661Z,22.57
2018-05-04T07:39:15.190Z,22.72
2018-05-04T07:39:55.678Z,22.76
2018-05-04T07:40:36.182Z,22.72
2018-05-04T07:41:16.692Z,22.76
2018-05-04T07:41:57.203Z,22.91
2018-05-04T07:42:37.743Z,23.04
2018-05-04T07:43:18.231Z,23.09
2018-05-04T07:43:58.727Z,23.1
2018-05-04T07:44:39.198Z,23.12
2018-05-04T07:45:19.740Z,23.13
2018-05-04T07:46:00.197Z,23.17
2018-05-04T07:46:40.722Z,23.12
2018-05-04T07:47:21.951Z,23.15
2018-05-04T07:48:01.750Z,23.12
2018-05-04T07:48:42.276Z,23.12
2018-05-04T07:49:23.534Z,23.15
2018-05-04T07:50:04.107Z,23.17
2018-05-04T07:50:44.561Z,23.22
2018-05-04T07:51:25.041Z,23.25
2018-05-04T07:52:05.592Z,23.28
2018-05-04T07:52:46.122Z,23.22
2018-05-04T07:53:26.623Z,23.35
2018-05-04T07:54:07.107Z,23.42
2018-05-04T07:56:46.102Z,23.61
2018-05-04T07:57:26.593Z,23.61
2018-05-04T07:58:07.090Z,23.88
2018-05-04T07:58:47.606Z,24.16
2018-05-04T07:59:28.360Z,24.37
2018-05-04T08:00:08.844Z,24.73
2018-05-04T08:00:49.327Z,25.17
2018-05-04T08:01:29.787Z,25.87
2018-05-04T08:02:10.329Z,26.35
2018-05-04T08:02:50.806Z,26.67
2018-05-04T08:03:31.949Z,26.92
2018-05-04T08:04:12.494Z,27.24
2018-05-04T08:04:52.935Z,27.65
2018-05-04T08:05:33.442Z,28.3
2018-05-04T08:06:13.977Z,29.19
2018-05-04T08:06:54.510Z,30.24
2018-05-04T08:07:35.037Z,30.6
2018-05-04T08:08:15.540Z,31.07
2018-05-04T08:08:56.047Z,31.29
2018-05-04T08:09:36.573Z,31.58
2018-05-04T08:10:17.108Z,31.93
2018-05-04T08:10:57.636Z,32.33
2018-05-04T08:11:38.160Z,32.59
2018-05-04T08:12:18.710Z,33.16
2018-05-04T08:12:59.232Z,33.66
2018-05-04T08:13:39.768Z,33.81
2018-05-04T08:14:20.298Z,34.09
2018-05-04T08:15:00.826Z,34.73
2018-05-04T08:15:41.435Z,34.99
2018-05-04T08:16:21.924Z,34.91
2018-05-04T08:17:02.418Z,34.99
2018-05-04T08:17:42.954Z,34.94
2018-05-04T08:18:23.481Z,34.84
2018-05-04T08:19:04.018Z,35.02
2018-05-04T08:19:44.558Z,35.03
2018-05-04T08:20:25.088Z,35.02
2018-05-04T08:21:05.625Z,34.89
2018-05-04T08:21:46.754Z,34.99
2018-05-04T08:22:27.992Z,35.03
2018-05-04T08:23:08.508Z,34.8
2018-05-04T08:23:49.038Z,34.35
2018-05-04T08:24:29.568Z,34.15
2018-05-04T08:25:10.894Z,33.97
2018-05-04T08:25:51.434Z,34.62
2018-05-04T08:26:31.961Z,34.62
2018-05-04T08:27:12.486Z,34.56
2018-05-04T08:27:53.011Z,34.28
2018-05-04T08:28:33.543Z,34.02
2018-05-04T08:29:14.073Z,33.86
2018-05-04T08:29:54.610Z,34
2018-05-04T08:30:35.138Z,34
2018-05-04T08:31:15.675Z,33.88
2018-05-04T08:31:56.220Z,33.71
2018-05-04T08:32:37.219Z,33.54
2018-05-04T08:33:17.316Z,33.54
2018-05-04T08:33:58.721Z,33.69
2018-05-04T08:34:40.221Z,33.97
2018-05-04T08:35:19.960Z,35.18
2018-05-04T08:36:00.352Z,37.62
2018-05-04T08:36:40.888Z,38.95
2018-05-04T08:37:21.419Z,41.3
2018-05-04T08:38:01.950Z,42.81
2018-05-04T08:38:42.490Z,44.07
2018-05-04T08:39:23.021Z,45.17
2018-05-04T08:40:03.555Z,45.95
2018-05-04T08:40:44.120Z,46.98
2018-05-04T08:41:24.625Z,48.04
2018-05-04T08:42:05.155Z,48.81
2018-05-04T08:42:45.686Z,49.7
2018-05-04T08:43:26.216Z,50.59
2018-05-04T08:44:06.757Z,51.36
2018-05-04T08:44:47.296Z,51.96
2018-05-04T08:45:27.828Z,50.78
2018-05-04T08:46:08.361Z,49.62